Time;durP1;ratioP1;P1;durP2;ratioP2;P2;SDS_P1;SDS_P2;PMS_P1;PMS_P2;Temp;Humidity;BMP_temperature;BMP_pressure;BME280_temperature;BME280_humidity;BME280_pressure;Samples;Min_cycle;Max_cycle;Signal;HPM_P1;HPM_P2
2023/08/15 00:02:19;;;;;;;7.40;5.70;;;;;;;19.57;100.00;101103.44;4982224;28;20030;-72
2023/08/15 00:04:44;;;;;;;9.75;5.90;;;;;;;19.61;100.00;101089.97;4988695;28;20034;-73
2023/08/15 00:07:09;;;;;;;10.52;6.15;;;;;;;19.62;100.00;101080.19;4986957;28;20437;-72
2023/08/15 00:09:35;;;;;;;11.70;6.47;;;;;;;19.59;100.00;101081.06;4981495;28;20514;-72
2023/08/15 00:12:00;;;;;;;12.10;6.93;;;;;;;19.54;100.00;101089.28;4989844;28;20032;-72
2023/08/15 00:14:26;;;;;;;12.70;7.18;;;;;;;19.54;100.00;101081.56;4989654;23;20066;-90
2023/08/15 00:16:52;;;;;;;14.70;7.75;;;;;;;19.58;100.00;101090.81;4992148;28;20514;-89
2023/08/15 00:19:17;;;;;;;15.30;8.60;;;;;;;19.53;100.00;101088.50;4987018;28;20041;-90
2023/08/15 00:21:43;;;;;;;12.85;7.85;;;;;;;19.57;100.00;101085.59;4984898;28;20100;-90
2023/08/15 00:24:08;;;;;;;13.55;7.85;;;;;;;19.59;100.00;101080.28;4989321;28;20380;-88
2023/08/15 00:26:33;;;;;;;11.88;7.57;;;;;;;19.55;100.00;101079.56;4997613;28;20034;-87
2023/08/15 00:28:59;;;;;;;15.30;8.75;;;;;;;19.58;100.00;101075.81;4982694;28;20439;-88
2023/08/15 00:31:25;;;;;;;14.65;7.85;;;;;;;19.50;100.00;101072.31;4982280;28;20026;-87
2023/08/15 00:33:50;;;;;;;11.20;6.50;;;;;;;19.51;100.00;101071.09;4986756;28;20053;-87
2023/08/15 00:36:15;;;;;;;15.73;8.13;;;;;;;19.50;100.00;101069.47;4983589;28;20078;-89
2023/08/15 00:38:41;;;;;;;12.13;6.20;;;;;;;19.49;100.00;101074.38;4986159;28;20506;-90
2023/08/15 00:41:06;;;;;;;12.70;8.32;;;;;;;19.53;100.00;101065.78;4996851;28;20030;-89
2023/08/15 00:43:32;;;;;;;14.40;7.57;;;;;;;19.45;100.00;101065.09;4978013;28;20038;-89
2023/08/15 00:45:59;;;;;;;12.63;7.45;;;;;;;19.39;100.00;101066.06;4982153;28;20176;-89
2023/08/15 00:48:29;;;;;;;13.07;7.97;;;;;;;19.09;100.00;101079.16;5001770;28;20030;-89
2023/08/15 00:50:56;;;;;;;15.75;7.72;;;;;;;19.22;100.00;101063.13;4988887;28;20022;-89
2023/08/15 00:53:22;;;;;;;13.63;7.00;;;;;;;19.20;100.00;101071.25;4981130;28;20115;-88
2023/08/15 00:55:48;;;;;;;13.13;7.22;;;;;;;19.27;100.00;101065.47;4990291;28;20407;-88
2023/08/15 00:58:14;;;;;;;10.65;6.53;;;;;;;19.41;100.00;101072.09;4993347;28;20076;-89
2023/08/15 01:00:41;;;;;;;10.35;7.80;;;;;;;19.42;100.00;101060.31;4979079;28;20121;-88
2023/08/15 01:03:06;;;;;;;12.27;7.55;;;;;;;19.36;100.00;101061.25;4985498;28;20029;-88
2023/08/15 01:05:32;;;;;;;11.27;7.35;;;;;;;19.34;100.00;101046.69;4980239;28;20042;-88
2023/08/15 01:07:57;;;;;;;11.32;7.63;;;;;;;19.28;100.00;101044.34;4981627;28;20031;-88
2023/08/15 01:10:23;;;;;;;11.35;8.00;;;;;;;19.23;100.00;101029.88;4984126;28;20044;-88
2023/08/15 01:12:48;;;;;;;14.07;9.02;;;;;;;19.21;100.00;101040.88;4982437;28;20125;-89
2023/08/15 01:15:18;;;;;;;16.83;10.38;;;;;;;19.13;100.00;101042.22;4993706;28;20412;-89
2023/08/15 01:18:12;;;;;;;16.73;10.18;;;;;;;19.18;100.00;101034.00;4981283;28;20483;-88
2023/08/15 01:20:38;;;;;;;12.50;8.07;;;;;;;19.08;100.00;101032.19;4984806;28;20459;-89
2023/08/15 01:23:07;;;;;;;12.52;8.57;;;;;;;19.07;100.00;101034.19;4981168;28;20113;-88
2023/08/15 01:25:41;;;;;;;14.02;8.77;;;;;;;19.02;100.00;101031.09;4981414;28;20081;-88
2023/08/15 01:28:14;;;;;;;15.38;9.00;;;;;;;19.04;100.00;101037.13;4982538;28;20027;-88
2023/08/15 01:30:54;;;;;;;14.07;7.88;;;;;;;19.12;100.00;101041.44;4976589;28;20073;-88
2023/08/15 01:33:29;;;;;;;10.35;7.88;;;;;;;19.24;100.00;101040.78;4975734;28;20042;-88
2023/08/15 01:36:13;;;;;;;11.63;6.75;;;;;;;19.37;100.00;101040.16;4983878;28;20053;-88
2023/08/15 01:38:41;;;;;;;10.15;6.93;;;;;;;19.43;100.00;101044.09;4979637;28;20030;-87
2023/08/15 01:41:11;;;;;;;18.73;9.60;;;;;;;19.32;100.00;101043.50;4977298;28;20545;-88
2023/08/15 01:43:39;;;;;;;15.27;8.25;;;;;;;19.26;100.00;101046.81;4984168;28;20042;-88
2023/08/15 01:46:05;;;;;;;14.27;7.20;;;;;;;19.23;100.00;101059.06;4985148;28;20633;-87
2023/08/15 01:48:31;;;;;;;20.80;11.00;;;;;;;19.20;100.00;101047.75;4985078;28;20061;-88
2023/08/15 01:50:56;;;;;;;10.40;6.40;;;;;;;19.25;100.00;101039.56;4985642;28;20455;-88
2023/08/15 01:53:21;;;;;;;17.02;9.63;;;;;;;19.28;100.00;101038.69;4990570;28;20124;-88
2023/08/15 01:55:47;;;;;;;15.82;8.32;;;;;;;19.18;100.00;101030.38;4978799;28;20034;-88
2023/08/15 01:58:12;;;;;;;15.23;8.90;;;;;;;19.26;100.00;101024.13;4984800;28;20118;-88
2023/08/15 02:00:37;;;;;;;16.85;11.73;;;;;;;19.18;100.00;101027.53;4988947;28;20590;-88
2023/08/15 02:03:03;;;;;;;19.13;10.68;;;;;;;19.23;100.00;101027.84;4981522;28;20113;-88
2023/08/15 02:05:29;;;;;;;14.45;10.05;;;;;;;19.13;100.00;101016.69;4985994;28;20065;-88
2023/08/15 02:07:54;;;;;;;12.65;8.48;;;;;;;19.24;100.00;101025.78;4983353;28;20027;-88
2023/08/15 02:10:19;;;;;;;16.02;8.95;;;;;;;19.32;100.00;101032.16;4978817;28;20141;-88
2023/08/15 02:12:45;;;;;;;11.38;6.80;;;;;;;19.32;100.00;101038.63;4984926;28;20097;-88
2023/08/15 02:15:11;;;;;;;14.85;7.95;;;;;;;19.43;100.00;101049.75;4981886;28;20050;-87
2023/08/15 02:17:37;;;;;;;13.25;8.07;;;;;;;19.23;100.00;101052.59;4993375;28;20037;-88
2023/08/15 02:20:03;;;;;;;15.80;8.40;;;;;;;19.26;100.00;101063.06;4981510;28;20420;-88
2023/08/15 02:22:31;;;;;;;10.52;8.02;;;;;;;19.20;100.00;101061.94;4981159;28;20089;-88
2023/08/15 02:24:56;;;;;;;12.38;9.48;;;;;;;19.21;100.00;101055.84;4984415;28;20030;-88
2023/08/15 02:27:21;;;;;;;10.48;7.32;;;;;;;19.21;100.00;101067.19;4976329;28;20031;-88
2023/08/15 02:29:50;;;;;;;15.40;8.23;;;;;;;19.07;100.00;101062.56;4980519;28;20034;-88
2023/08/15 02:32:16;;;;;;;13.00;7.70;;;;;;;19.22;100.00;101048.13;4983199;28;20122;-88
2023/08/15 02:34:42;;;;;;;12.57;7.85;;;;;;;19.24;100.00;101060.63;4995463;28;20117;-88
2023/08/15 02:37:07;;;;;;;12.88;7.97;;;;;;;19.29;100.00;101068.66;4987368;28;20032;-88
2023/08/15 02:39:33;;;;;;;12.77;7.18;;;;;;;19.25;100.00;101067.94;4983313;28;20076;-88
2023/08/15 02:41:58;;;;;;;13.20;7.47;;;;;;;19.26;100.00;101072.34;4986789;28;20140;-88
2023/08/15 02:44:23;;;;;;;15.90;7.68;;;;;;;19.28;100.00;101077.63;4981764;28;20026;-88
2023/08/15 02:46:49;;;;;;;11.73;6.90;;;;;;;19.20;100.00;101085.44;4981235;28;20472;-88
2023/08/15 02:49:14;;;;;;;11.90;7.22;;;;;;;19.22;100.00;101085.81;4983731;28;20037;-88
2023/08/15 02:51:40;;;;;;;12.68;7.15;;;;;;;19.23;100.00;101076.09;4979587;28;20042;-88
2023/08/15 02:54:05;;;;;;;13.13;6.93;;;;;;;19.22;100.00;101082.97;4994789;28;20034;-87
2023/08/15 02:56:30;;;;;;;11.45;7.05;;;;;;;19.20;100.00;101081.81;4991784;28;20030;-88
2023/08/15 02:58:56;;;;;;;13.00;6.82;;;;;;;19.24;100.00;101083.34;4986011;28;20482;-88
2023/08/15 03:01:21;;;;;;;9.48;6.70;;;;;;;19.24;100.00;101083.34;4982121;28;20037;-88
2023/08/15 03:03:47;;;;;;;10.15;5.30;;;;;;;19.22;100.00;101085.81;4980614;28;20468;-88
2023/08/15 03:06:12;;;;;;;7.15;4.80;;;;;;;19.20;100.00;101093.97;5000260;28;20430;-88
2023/08/15 03:08:38;;;;;;;9.63;5.40;;;;;;;19.19;100.00;101086.69;4982845;28;20118;-88
2023/08/15 03:11:03;;;;;;;8.77;4.85;;;;;;;19.27;100.00;101082.50;4984719;28;20037;-88
2023/08/15 03:13:29;;;;;;;9.27;5.63;;;;;;;19.25;100.00;101076.44;4995014;28;20357;-88
2023/08/15 03:15:56;;;;;;;9.82;4.85;;;;;;;19.23;100.00;101070.41;4985803;28;20041;-88
2023/08/15 03:18:21;;;;;;;10.13;5.28;;;;;;;19.24;100.00;101066.31;4979322;28;20440;-88
2023/08/15 03:21:02;;;;;;;9.65;5.68;;;;;;;19.21;100.00;101055.84;4986632;28;20042;-88
2023/08/15 03:23:27;;;;;;;8.00;4.78;;;;;;;19.23;100.00;101064.72;4980850;28;20425;-88
2023/08/15 03:26:04;;;;;;;11.38;5.18;;;;;;;19.36;100.00;101061.25;4985334;28;20099;-87
2023/08/15 03:28:30;;;;;;;6.32;4.30;;;;;;;19.28;100.00;101067.06;4981218;28;20479;-88
2023/08/15 03:30:56;;;;;;;13.65;5.20;;;;;;;19.24;100.00;101072.00;4987211;28;20049;-88
2023/08/15 03:33:22;;;;;;;10.52;5.13;;;;;;;19.21;100.00;101061.53;4987486;28;20034;-88
2023/08/15 03:35:49;;;;;;;9.95;5.65;;;;;;;19.11;100.00;101056.84;4987827;28;20379;-88
2023/08/15 03:38:20;;;;;;;8.23;4.63;;;;;;;19.12;100.00;101069.81;4988939;28;20027;-88
2023/08/15 03:40:47;;;;;;;6.35;4.32;;;;;;;19.09;100.00;101068.63;4983437;28;20034;-88
2023/08/15 03:43:13;;;;;;;7.78;4.45;;;;;;;19.15;100.00;101080.28;4975215;28;20042;-88
2023/08/15 03:45:39;;;;;;;7.07;4.30;;;;;;;19.12;100.00;101069.81;4976645;28;20475;-88
2023/08/15 03:48:06;;;;;;;8.88;4.43;;;;;;;19.18;100.00;101075.75;4988667;28;20018;-88
2023/08/15 03:50:33;;;;;;;10.98;4.53;;;;;;;19.09;100.00;101082.78;4984602;28;20487;-88
2023/08/15 03:52:59;;;;;;;12.00;4.50;;;;;;;19.08;100.00;101083.25;4984856;28;20014;-88
2023/08/15 03:55:25;;;;;;;9.85;5.40;;;;;;;19.00;100.00;101081.78;4984248;28;20026;-88
2023/08/15 03:57:50;;;;;;;7.40;5.15;;;;;;;19.06;100.00;101086.50;4982000;28;20330;-88
2023/08/15 04:00:18;;;;;;;8.65;4.30;;;;;;;19.01;100.00;101091.88;4971799;28;20518;-88
2023/08/15 04:02:44;;;;;;;12.80;5.25;;;;;;;18.99;100.00;101094.34;4985288;28;20037;-88
2023/08/15 04:05:11;;;;;;;9.80;4.70;;;;;;;18.95;100.00;101088.72;4985740;28;20018;-88
2023/08/15 04:07:37;;;;;;;9.00;4.28;;;;;;;18.84;100.00;101088.91;4988707;28;20510;-88
2023/08/15 04:10:03;;;;;;;10.65;4.65;;;;;;;18.97;100.00;101091.13;4983367;28;20434;-89
2023/08/15 04:12:28;;;;;;;7.07;4.40;;;;;;;19.01;100.00;101087.00;4996900;28;20113;-87
2023/08/15 04:14:53;;;;;;;7.28;4.30;;;;;;;18.95;100.00;101111.41;4986263;28;20542;-88
2023/08/15 04:17:19;;;;;;;7.50;4.07;;;;;;;18.92;100.00;101100.13;4994571;28;20064;-88
2023/08/15 04:19:44;;;;;;;7.63;4.00;;;;;;;18.87;100.00;101099.41;4986604;28;20088;-88
2023/08/15 04:22:10;;;;;;;10.35;3.72;;;;;;;18.94;100.00;101109.81;4991176;28;20587;-88
2023/08/15 04:24:35;;;;;;;9.98;5.65;;;;;;;18.79;100.00;101111.28;4990347;28;20490;-88
2023/08/15 04:27:01;;;;;;;6.88;4.00;;;;;;;18.81;100.00;101117.34;4989348;28;20041;-88
2023/08/15 04:29:27;;;;;;;10.13;4.47;;;;;;;18.76;100.00;101115.72;4982217;28;20493;-87
2023/08/15 04:31:52;;;;;;;7.75;4.75;;;;;;;18.86;100.00;101120.47;4988026;28;20553;-88
2023/08/15 04:34:17;;;;;;;7.10;3.60;;;;;;;18.90;100.00;101114.75;4985424;28;20051;-88
2023/08/15 04:36:46;;;;;;;9.27;3.97;;;;;;;18.80;100.00;101105.16;4983471;28;20133;-88
2023/08/15 04:39:12;;;;;;;5.13;3.78;;;;;;;18.74;100.00;101115.38;4986429;28;20045;-88
2023/08/15 04:41:38;;;;;;;7.85;3.83;;;;;;;18.77;100.00;101111.69;4986735;28;20044;-88
2023/08/15 04:44:03;;;;;;;6.93;4.10;;;;;;;18.73;100.00;101118.63;4996394;28;20065;-88
2023/08/15 04:46:29;;;;;;;10.93;4.35;;;;;;;18.81;100.00;101120.97;4985531;28;20376;-88
2023/08/15 04:48:54;;;;;;;10.95;4.13;;;;;;;18.69;100.00;101130.03;4985381;28;20479;-88
2023/08/15 04:51:20;;;;;;;7.15;3.85;;;;;;;18.64;100.00;101136.19;4988009;28;20034;-88
2023/08/15 04:53:46;;;;;;;9.75;5.65;;;;;;;18.63;100.00;101131.75;4986010;28;20395;-88
2023/08/15 04:56:12;;;;;;;6.85;3.72;;;;;;;18.71;100.00;101130.41;4987415;28;20038;-88
2023/08/15 04:58:38;;;;;;;10.98;5.00;;;;;;;18.53;100.00;101141.19;4998283;28;20126;-88
2023/08/15 05:01:03;;;;;;;8.82;4.95;;;;;;;18.53;100.00;101152.53;4987865;28;20026;-88
2023/08/15 05:03:29;;;;;;;10.00;4.68;;;;;;;18.46;100.00;101147.78;4988625;28;20030;-88
2023/08/15 05:05:54;;;;;;;8.77;4.65;;;;;;;18.58;100.00;101150.03;4988739;28;20030;-88
2023/08/15 05:08:19;;;;;;;5.53;3.42;;;;;;;18.60;100.00;101152.44;4986337;28;20034;-87
2023/08/15 05:10:45;;;;;;;5.50;3.47;;;;;;;18.61;100.00;101171.06;4986432;28;20030;-88
2023/08/15 05:13:10;;;;;;;5.20;4.15;;;;;;;18.56;100.00;101175.16;4988652;28;20042;-88
2023/08/15 05:15:36;;;;;;;10.75;3.80;;;;;;;18.68;100.00;101182.31;4988573;28;20037;-88
2023/08/15 05:18:01;;;;;;;5.93;4.30;;;;;;;18.54;100.00;101176.84;4985969;28;20455;-88
2023/08/15 05:20:27;;;;;;;9.77;4.93;;;;;;;18.52;100.00;101190.63;4988423;28;20026;-88
2023/08/15 05:22:53;;;;;;;7.40;4.20;;;;;;;18.45;100.00;101198.00;4990508;28;20034;-88
2023/08/15 05:25:18;;;;;;;5.55;3.50;;;;;;;18.57;100.00;101202.28;4986905;28;20042;-88
2023/08/15 05:27:44;;;;;;;8.90;5.22;;;;;;;18.51;100.00;101206.00;4978817;28;20030;-88
2023/08/15 05:30:10;;;;;;;11.75;4.53;;;;;;;18.53;100.00;101206.38;4986987;28;20114;-87
2023/08/15 05:32:35;;;;;;;9.82;4.15;;;;;;;18.58;100.00;101214.44;4985173;28;20026;-88
2023/08/15 05:35:04;;;;;;;7.22;4.63;;;;;;;18.61;100.00;101213.56;4990153;28;20035;-88
2023/08/15 05:37:29;;;;;;;6.60;4.03;;;;;;;18.59;100.00;101213.19;4984749;28;20034;-88
2023/08/15 05:39:54;;;;;;;11.00;4.75;;;;;;;18.57;100.00;101215.66;4981626;28;20073;-88
2023/08/15 05:42:20;;;;;;;9.18;4.28;;;;;;;18.52;100.00;101211.25;4984719;28;20523;-88
2023/08/15 05:44:46;;;;;;;6.07;3.80;;;;;;;18.59;100.00;101216.03;4982846;28;20029;-88
2023/08/15 05:47:12;;;;;;;6.63;3.20;;;;;;;18.57;100.00;101209.97;4984107;28;20133;-88
2023/08/15 05:49:38;;;;;;;11.23;4.53;;;;;;;18.45;100.00;101215.00;4988777;28;20026;-88
2023/08/15 05:52:03;;;;;;;6.63;4.07;;;;;;;18.42;100.00;101221.50;4984525;28;20036;-88
2023/08/15 05:54:29;;;;;;;7.10;3.20;;;;;;;18.52;100.00;101230.31;4996859;28;20027;-88
2023/08/15 05:56:55;;;;;;;15.25;5.10;;;;;;;18.29;100.00;101226.94;4992648;28;20038;-88
2023/08/15 05:59:21;;;;;;;10.00;4.18;;;;;;;18.47;100.00;101240.09;4987842;28;20459;-88
2023/08/15 06:01:50;;;;;;;6.47;3.53;;;;;;;18.38;100.00;101242.63;4986967;28;20026;-88
2023/08/15 06:04:15;;;;;;;8.73;4.45;;;;;;;18.39;100.00;101247.06;4990267;28;20564;-87
2023/08/15 06:06:41;;;;;;;8.20;3.65;;;;;;;18.36;100.00;101248.72;4990453;28;20027;-88
2023/08/15 06:09:07;;;;;;;5.60;3.13;;;;;;;18.46;100.00;101255.47;4992200;28;20026;-88
2023/08/15 06:11:32;;;;;;;8.80;3.50;;;;;;;18.36;100.00;101245.91;4990779;28;20025;-88
2023/08/15 06:13:57;;;;;;;4.93;3.33;;;;;;;18.42;100.00;101240.53;4998672;28;20141;-88
2023/08/15 06:16:23;;;;;;;7.88;3.30;;;;;;;18.43;100.00;101242.97;4985163;28;20046;-88
2023/08/15 06:18:48;;;;;;;11.23;4.82;;;;;;;18.49;100.00;101248.97;4990931;28;20018;-88
2023/08/15 06:21:14;;;;;;;9.88;4.03;;;;;;;18.53;100.00;101243.25;4987650;28;20558;-88
2023/08/15 06:23:39;;;;;;;7.97;3.25;;;;;;;18.51;100.00;101249.34;4991070;28;20034;-88
2023/08/15 06:26:05;;;;;;;9.55;3.83;;;;;;;18.44;100.00;101253.06;4986384;28;20026;-87
2023/08/15 06:28:32;;;;;;;8.55;2.92;;;;;;;18.55;100.00;101257.78;4985251;28;20041;-88
2023/08/15 06:30:58;;;;;;;9.20;4.35;;;;;;;18.56;100.00;101262.25;4992611;28;20038;-88
2023/08/15 06:33:23;;;;;;;8.65;3.63;;;;;;;18.56;100.00;101265.88;4992034;28;20038;-88
2023/08/15 06:35:49;;;;;;;7.72;3.40;;;;;;;18.58;100.00;101254.13;4992420;28;20541;-87
2023/08/15 06:38:14;;;;;;;9.23;3.80;;;;;;;18.59;100.00;101262.19;4984972;28;20109;-88
2023/08/15 06:40:39;;;;;;;8.45;4.28;;;;;;;18.76;100.00;101280.19;4990190;28;20023;-88
2023/08/15 06:43:05;;;;;;;10.20;3.53;;;;;;;18.81;100.00;101282.63;4992134;28;20026;-87
2023/08/15 06:45:30;;;;;;;9.82;3.97;;;;;;;18.79;100.00;101282.22;4990664;28;20854;-88
2023/08/15 06:47:56;;;;;;;8.05;4.07;;;;;;;18.78;100.00;101283.44;4993804;28;20549;-88
2023/08/15 06:50:22;;;;;;;6.47;3.20;;;;;;;18.84;100.00;101275.28;4990316;28;20391;-88
2023/08/15 06:52:47;;;;;;;19.25;4.85;;;;;;;18.93;100.00;101288.94;4990172;28;20022;-88
2023/08/15 06:55:12;;;;;;;9.95;4.85;;;;;;;18.93;100.00;101288.94;4988261;28;20030;-88
2023/08/15 06:57:38;;;;;;;8.85;4.28;;;;;;;18.84;100.00;101290.25;4982367;28;20475;-88
2023/08/15 07:00:06;;;;;;;9.32;3.67;;;;;;;18.89;100.00;101295.47;4988908;28;20490;-88
2023/08/15 07:02:32;;;;;;;9.38;3.28;;;;;;;18.96;100.00;101308.75;4987274;28;20034;-88
2023/08/15 07:04:57;;;;;;;12.48;3.38;;;;;;;19.04;100.00;101301.75;4999675;28;20427;-87
2023/08/15 07:07:23;;;;;;;12.77;4.15;;;;;;;19.05;100.00;101308.22;4985003;28;20088;-88
2023/08/15 07:09:49;;;;;;;9.75;3.75;;;;;;;19.02;100.00;101317.59;4991224;28;20483;-87
2023/08/15 07:12:17;;;;;;;11.52;4.32;;;;;;;19.07;100.00;101311.44;4986343;28;20549;-88
2023/08/15 07:14:46;;;;;;;10.73;3.95;;;;;;;19.05;100.00;101308.22;4988353;28;20549;-88
2023/08/15 07:17:11;;;;;;;14.82;3.72;;;;;;;19.12;100.00;101316.66;4984442;28;20578;-88
2023/08/15 07:19:37;;;;;;;9.93;4.63;;;;;;;19.26;100.00;101315.63;4986176;28;20034;-88
2023/08/15 07:22:03;;;;;;;8.93;4.55;;;;;;;19.34;100.00;101319.19;4991816;28;20026;-88
2023/08/15 07:24:29;;;;;;;12.20;3.88;;;;;;;19.37;100.00;101321.16;4989660;28;20033;-88
2023/08/15 07:26:54;;;;;;;11.00;4.05;;;;;;;19.26;100.00;101324.94;4983902;28;20057;-89
2023/08/15 07:29:19;;;;;;;16.40;5.70;;;;;;;19.25;100.00;101328.22;4989771;28;20037;-87
2023/08/15 07:31:45;;;;;;;11.85;5.00;;;;;;;19.37;100.00;101329.66;4987353;28;20109;-88
2023/08/15 07:34:10;;;;;;;11.40;5.00;;;;;;;19.36;100.00;101340.22;4992452;28;20454;-88
2023/08/15 07:36:36;;;;;;;10.18;4.18;;;;;;;19.28;100.00;101327.34;4987797;28;20537;-88
2023/08/15 07:39:02;;;;;;;7.93;4.25;;;;;;;19.48;100.00;101342.47;4990958;28;20403;-88
2023/08/15 07:41:27;;;;;;;12.23;4.18;;;;;;;19.56;100.00;101334.63;4990505;28;20496;-88
2023/08/15 07:43:52;;;;;;;10.02;4.10;;;;;;;19.54;100.00;101328.56;4988490;28;20050;-88
2023/08/15 07:46:18;;;;;;;10.38;4.05;;;;;;;19.57;100.00;101332.63;4989681;28;20535;-88
2023/08/15 07:48:43;;;;;;;11.38;3.45;;;;;;;19.72;100.00;101338.91;4989761;28;20034;-88
2023/08/15 07:51:09;;;;;;;8.77;4.53;;;;;;;19.77;100.00;101339.19;4990981;28;20023;-88
2023/08/15 07:53:35;;;;;;;10.20;5.15;;;;;;;19.65;100.00;101329.22;4988548;28;20096;-87
2023/08/15 07:56:00;;;;;;;13.10;4.35;;;;;;;19.72;100.00;101338.91;4988230;28;20478;-88
2023/08/15 07:58:25;;;;;;;9.60;4.57;;;;;;;19.61;100.00;101334.16;4990659;28;20050;-88
2023/08/15 08:00:51;;;;;;;9.07;3.85;;;;;;;19.75;100.00;101341.66;4986515;28;20029;-88
2023/08/15 08:03:16;;;;;;;10.32;4.28;;;;;;;19.87;100.00;101345.94;4985908;28;20474;-88
2023/08/15 08:05:42;;;;;;;9.77;3.80;;;;;;;20.11;100.00;101338.22;4988777;28;20113;-88
2023/08/15 08:08:08;;;;;;;6.28;4.00;;;;;;;20.10;100.00;101337.41;4990338;28;20084;-87
2023/08/15 08:10:33;;;;;;;7.75;3.55;;;;;;;20.19;100.00;101344.59;4987999;28;20034;-88
2023/08/15 08:12:59;;;;;;;10.40;3.85;;;;;;;20.17;100.00;101347.06;4983534;28;20065;-88
2023/08/15 08:15:25;;;;;;;7.75;3.30;;;;;;;20.21;100.00;101359.16;4989512;28;20031;-87
2023/08/15 08:17:51;;;;;;;11.45;3.40;;;;;;;20.41;100.00;101362.88;4986725;28;20065;-88
2023/08/15 08:20:17;;;;;;;7.47;3.13;;;;;;;20.23;100.00;101351.81;4989478;28;20065;-88
2023/08/15 08:22:43;;;;;;;6.28;2.88;;;;;;;20.27;100.00;101363.13;4987255;28;20038;-87
2023/08/15 08:25:21;;;;;;;9.48;3.17;;;;;;;20.33;100.00;101358.53;4987677;28;20022;-88
2023/08/15 08:27:46;;;;;;;7.75;2.90;;;;;;;20.40;100.00;101369.78;4987665;28;20065;-88
2023/08/15 08:30:13;;;;;;;4.70;2.60;;;;;;;20.48;100.00;101368.41;4996264;28;20065;-88
2023/08/15 08:32:39;;;;;;;9.25;3.13;;;;;;;20.52;100.00;101379.72;4990008;28;20060;-88
2023/08/15 08:35:05;;;;;;;4.07;3.00;;;;;;;20.64;100.00;101384.81;4995910;28;20076;-88
2023/08/15 08:37:32;;;;;;;8.27;2.83;;;;;;;20.79;100.00;101388.16;4984946;28;20109;-88
2023/08/15 08:39:57;;;;;;;5.53;2.40;;;;;;;20.90;100.00;101377.38;4987810;28;20022;-88
2023/08/15 08:42:23;;;;;;;6.68;3.15;;;;;;;20.90;100.00;101397.28;4987706;28;20026;-88
2023/08/15 08:44:49;;;;;;;6.03;2.70;;;;;;;20.66;100.00;101402.25;4988659;28;20028;-88
2023/08/15 08:47:18;;;;;;;12.32;4.13;;;;;;;20.71;100.00;101392.41;4984532;28;20030;-88
2023/08/15 08:49:45;;;;;;;10.95;3.17;;;;;;;20.75;100.00;101403.72;4985896;28;20080;-87
2023/08/15 08:52:12;;;;;;;7.88;3.35;;;;;;;20.91;100.00;101400.94;4989687;28;20022;-87
2023/08/15 08:54:38;;;;;;;11.43;3.47;;;;;;;20.71;100.00;101409.47;4987994;28;20462;-87
2023/08/15 08:57:06;;;;;;;5.90;3.85;;;;;;;20.76;100.00;101406.09;4993641;28;20038;-87
2023/08/15 08:59:35;;;;;;;5.63;3.15;;;;;;;20.75;100.00;101415.88;4984438;28;20382;-87
2023/08/15 09:02:00;;;;;;;5.05;3.35;;;;;;;20.73;100.00;101404.13;4999828;28;20049;-87
2023/08/15 09:04:26;;;;;;;8.55;2.90;;;;;;;20.73;100.00;101401.28;4991792;28;20474;-87
2023/08/15 09:06:52;;;;;;;5.60;3.63;;;;;;;20.77;100.00;101412.63;4986258;28;20034;-88
2023/08/15 09:09:18;;;;;;;12.25;6.43;;;;;;;20.72;100.00;101405.38;4987681;28;20037;-88
2023/08/15 09:11:46;;;;;;;8.02;3.83;;;;;;;20.78;100.00;101408.50;4986267;28;20446;-87
2023/08/15 09:14:12;;;;;;;10.13;4.15;;;;;;;20.69;100.00;101394.88;4978869;28;20038;-87
2023/08/15 09:16:48;;;;;;;10.48;4.30;;;;;;;20.81;100.00;101402.75;4986884;28;20485;-87
2023/08/15 09:19:15;;;;;;;6.20;3.80;;;;;;;20.74;100.00;101411.41;4994528;28;20034;-87
2023/08/15 09:21:40;;;;;;;11.77;5.43;;;;;;;20.75;100.00;101409.41;4984137;28;20038;-87
2023/08/15 09:24:06;;;;;;;5.93;3.47;;;;;;;20.83;100.00;101416.53;4987779;28;20390;-87
2023/08/15 09:26:33;;;;;;;6.53;3.95;;;;;;;20.97;100.00;101415.47;4987444;28;20062;-87
2023/08/15 09:28:59;;;;;;;6.50;3.65;;;;;;;20.91;100.00;101406.63;4986409;28;20566;-87
2023/08/15 09:31:24;;;;;;;13.05;4.57;;;;;;;21.07;100.00;101405.91;4985577;28;20109;-87
2023/08/15 09:33:49;;;;;;;5.32;3.47;;;;;;;21.16;100.00;101406.09;4987196;28;20037;-87
2023/08/15 09:36:15;;;;;;;5.70;3.28;;;;;;;21.16;100.00;101406.09;4986059;28;20038;-87
2023/08/15 09:38:41;;;;;;;6.18;3.72;;;;;;;21.27;100.00;101420.09;4987473;28;20038;-87
2023/08/15 09:41:10;;;;;;;6.88;3.80;;;;;;;21.40;100.00;101420.25;4985792;28;20112;-87
2023/08/15 09:43:36;;;;;;;8.85;3.97;;;;;;;21.46;100.00;101418.50;4989117;28;20407;-87
2023/08/15 09:46:02;;;;;;;8.95;3.85;;;;;;;21.56;100.00;101431.72;4980776;28;20030;-88
2023/08/15 09:48:28;;;;;;;9.57;3.60;;;;;;;21.60;100.00;101432.44;4987660;28;20387;-87
2023/08/15 09:50:57;;;;;;;5.32;3.22;;;;;;;21.70;100.00;101437.09;4986092;28;20039;-88
2023/08/15 09:53:24;;;;;;;4.78;3.13;;;;;;;21.83;100.00;101447.81;4987209;28;20022;-88
2023/08/15 09:55:50;;;;;;;8.48;3.47;;;;;;;22.06;100.00;101441.94;4997551;28;20022;-87
2023/08/15 09:58:16;;;;;;;6.75;3.30;;;;;;;22.12;100.00;101431.63;4984762;28;20364;-88
2023/08/15 10:00:43;;;;;;;6.05;2.90;;;;;;;21.78;100.00;101439.75;4986898;28;20527;-88
2023/08/15 10:03:18;;;;;;;5.78;2.67;;;;;;;22.17;100.00;101452.28;4987477;28;20022;-87
2023/08/15 10:05:53;;;;;;;2.97;2.53;;;;;;;22.39;100.00;101444.84;4986300;28;20438;-88
2023/08/15 10:08:20;;;;;;;7.35;3.33;;;;;;;22.14;100.00;101445.44;4988465;28;20082;-88
2023/08/15 10:10:49;;;;;;;7.82;2.80;;;;;;;21.85;100.00;101443.25;4987278;28;20061;-87
2023/08/15 10:13:16;;;;;;;6.90;2.90;;;;;;;21.94;100.00;101448.34;4984861;28;20077;-88
2023/08/15 10:15:43;;;;;;;9.98;3.15;;;;;;;22.12;100.00;101450.78;4982976;28;20080;-88
2023/08/15 10:18:09;;;;;;;7.30;3.50;;;;;;;22.21;100.00;101456.66;4985204;28;20462;-88
2023/08/15 10:20:38;;;;;;;7.18;3.05;;;;;;;22.36;100.00;101465.69;4982442;28;20067;-88
2023/08/15 10:23:09;;;;;;;7.63;3.40;;;;;;;22.28;100.00;101467.09;4985727;28;20055;-87
2023/08/15 10:25:36;;;;;;;8.65;3.33;;;;;;;22.53;100.00;101460.78;4985481;28;20471;-87
2023/08/15 10:28:10;;;;;;;5.65;3.50;;;;;;;22.63;100.00;101458.91;4985332;28;20037;-88
2023/08/15 10:30:46;;;;;;;6.90;3.80;;;;;;;22.74;100.00;101457.34;4974233;28;20023;-88
2023/08/15 10:33:11;;;;;;;7.82;3.70;;;;;;;23.11;100.00;101475.13;4983246;28;20510;-88
2023/08/15 10:35:37;;;;;;;9.93;3.33;;;;;;;23.06;98.85;101463.44;4986737;28;20042;-88
2023/08/15 10:38:13;;;;;;;7.60;4.00;;;;;;;23.15;100.00;101472.19;4979910;28;20034;-88
2023/08/15 10:40:41;;;;;;;5.32;3.28;;;;;;;23.42;100.00;101465.28;4988706;28;20517;-87
2023/08/15 10:43:10;;;;;;;8.20;3.97;;;;;;;23.50;97.64;101470.31;4986465;28;20026;-87
2023/08/15 10:45:44;;;;;;;8.52;4.43;;;;;;;23.62;95.90;101470.81;4990783;28;20022;-88
2023/08/15 10:48:10;;;;;;;8.95;4.93;;;;;;;23.25;95.57;101471.03;4988632;28;20081;-88
2023/08/15 10:50:42;;;;;;;10.40;4.45;;;;;;;23.26;100.00;101472.66;4990757;28;20026;-87
2023/08/15 10:53:08;;;;;;;10.02;4.78;;;;;;;23.19;98.96;101480.63;4990644;28;20036;-87
2023/08/15 10:55:36;;;;;;;7.15;3.80;;;;;;;23.06;99.95;101486.28;4996717;28;20390;-88
2023/08/15 10:58:09;;;;;;;8.65;4.43;;;;;;;23.09;99.61;101499.69;4989675;28;20110;-88
2023/08/15 11:00:36;;;;;;;7.95;4.90;;;;;;;23.19;98.55;101484.31;4989758;28;20423;-88
2023/08/15 11:03:02;;;;;;;9.60;4.00;;;;;;;23.22;98.42;101488.31;4992151;28;20034;-88
2023/08/15 11:05:43;;;;;;;9.73;5.25;;;;;;;23.26;100.00;101486.94;4989464;28;20080;-88
2023/08/15 11:08:17;;;;;;;6.82;4.50;;;;;;;22.88;99.83;101487.56;4987319;28;20483;-88
2023/08/15 11:10:48;;;;;;;6.57;4.45;;;;;;;22.90;100.00;101487.91;4988327;28;20390;-87
2023/08/15 11:13:17;;;;;;;11.02;5.00;;;;;;;22.86;100.00;101494.97;5000042;28;20046;-88